createdAt,value
2018-06-17T00:03:18.639Z,18.98
2018-06-17T00:08:21.127Z,18.95
2018-06-17T00:13:23.484Z,18.95
2018-06-17T00:18:25.833Z,18.73
2018-06-17T00:23:28.196Z,18.63
2018-06-17T00:28:30.541Z,18.53
2018-06-17T00:33:33.347Z,18.51
2018-06-17T00:38:35.699Z,18.46
2018-06-17T00:43:38.486Z,18.42
2018-06-17T00:48:40.856Z,18.20
2018-06-17T00:53:43.192Z,18.15
2018-06-17T00:58:45.600Z,18.10
2018-06-17T01:10:00.155Z,18.02
2018-06-17T01:20:41.981Z,18.00
2018-06-17T06:59:11.468Z,18.72
2018-06-17T09:17:38.361Z,20.08
2018-06-17T12:09:35.777Z,21.38
2018-06-17T12:14:38.010Z,22.05
2018-06-17T12:19:40.219Z,21.84
2018-06-17T12:24:42.982Z,21.44
2018-06-17T12:29:45.191Z,21.13
2018-06-17T12:34:47.368Z,20.68
2018-06-17T12:39:49.532Z,20.73
2018-06-17T12:44:51.708Z,20.27
2018-06-17T12:49:53.960Z,19.92
2018-06-17T12:54:56.171Z,19.06
2018-06-17T12:59:58.346Z,19.05
2018-06-17T13:05:00.576Z,19.59
2018-06-17T13:10:02.779Z,19.92
2018-06-17T13:15:04.951Z,20.34
2018-06-17T13:20:07.212Z,20.52
2018-06-17T13:25:09.379Z,20.39
2018-06-17T13:30:11.593Z,20.57
2018-06-17T13:35:13.828Z,20.93
2018-06-17T13:40:16.038Z,21.39
2018-06-17T13:45:18.511Z,21.31
2018-06-17T13:50:20.743Z,21.65
2018-06-17T13:55:22.977Z,22.28
2018-06-17T14:00:25.233Z,22.61
2018-06-17T14:05:27.524Z,23.72
2018-06-17T14:10:29.751Z,23.07
2018-06-17T14:15:32.248Z,23.20
2018-06-17T14:20:34.511Z,24.01
2018-06-17T14:25:36.734Z,24.16
2018-06-17T14:30:38.948Z,24.04
2018-06-17T14:35:41.143Z,23.73
2018-06-17T14:40:49.033Z,23.58
2018-06-17T14:45:56.315Z,23.98
2018-06-17T14:51:04.158Z,24.03
2018-06-17T14:56:06.326Z,24.05
2018-06-17T15:01:08.644Z,23.84
2018-06-17T15:06:10.853Z,23.36
2018-06-17T15:11:13.413Z,23.28
2018-06-17T15:16:15.560Z,22.93
2018-06-17T15:21:17.774Z,23.34
2018-06-17T15:26:20.038Z,23.14
2018-06-17T15:31:27.921Z,22.83
2018-06-17T15:36:35.858Z,23.13
2018-06-17T15:41:38.054Z,23.26
2018-06-17T15:46:40.222Z,23.57
2018-06-17T15:51:42.395Z,23.30
2018-06-17T15:56:44.566Z,22.73
2018-06-17T16:01:46.741Z,22.67
2018-06-17T16:06:48.955Z,22.61
2018-06-17T16:11:56.824Z,22.97
2018-06-17T16:17:04.808Z,22.71
2018-06-17T16:22:07.014Z,22.55
2018-06-17T16:27:09.214Z,22.39
2018-06-17T16:32:11.411Z,22.13
2018-06-17T16:37:13.559Z,22.07
2018-06-17T16:42:15.716Z,22.39
2018-06-17T16:47:17.906Z,22.70
2018-06-17T16:52:25.691Z,22.58
2018-06-17T16:57:33.544Z,22.09
2018-06-17T17:02:35.747Z,21.98
2018-06-17T17:07:37.966Z,21.49
2018-06-17T17:12:40.204Z,21.24
2018-06-17T17:17:42.355Z,21.40
2018-06-17T17:22:44.487Z,21.26
2018-06-17T17:27:46.671Z,21.24
2018-06-17T17:32:54.471Z,21.38
2018-06-17T17:38:02.415Z,21.11
2018-06-17T17:43:04.642Z,21.00
2018-06-17T17:48:06.826Z,20.98
2018-06-17T17:53:09.010Z,20.95
2018-06-17T17:58:11.228Z,20.87
2018-06-17T18:03:13.376Z,20.73
2018-06-17T18:08:16.347Z,20.88
2018-06-17T18:13:18.599Z,20.94
2018-06-17T18:18:20.786Z,20.90
2018-06-17T18:23:23.022Z,21.08
2018-06-17T18:28:30.960Z,21.01
2018-06-17T18:33:38.851Z,20.60
2018-06-17T18:38:45.436Z,20.54
2018-06-17T18:43:47.650Z,20.66
2018-06-17T18:48:49.916Z,20.76
2018-06-17T18:53:52.133Z,20.94
2018-06-17T18:58:54.342Z,20.91
2018-06-17T19:03:56.580Z,20.79
2018-06-17T19:09:04.600Z,20.75
2018-06-17T19:14:12.403Z,20.37
2018-06-17T19:19:14.629Z,20.45
2018-06-17T19:24:17.002Z,20.61
2018-06-17T19:29:19.214Z,20.68
2018-06-17T19:34:21.414Z,20.78
2018-06-17T19:39:23.582Z,20.88
2018-06-17T19:44:25.896Z,20.96
2018-06-17T19:49:33.995Z,20.98
2018-06-17T19:54:41.968Z,20.99
2018-06-17T19:59:49.765Z,20.95
2018-06-17T20:04:51.893Z,20.92
2018-06-17T20:09:54.151Z,20.94
2018-06-17T20:14:57.269Z,20.94
2018-06-17T20:19:59.457Z,20.95
2018-06-17T20:25:02.061Z,20.93
2018-06-17T20:30:05.879Z,20.93
2018-06-17T20:35:13.874Z,20.91
2018-06-17T20:40:21.771Z,20.91
2018-06-17T20:45:23.970Z,20.90
2018-06-17T20:50:26.184Z,20.87
2018-06-17T20:55:28.445Z,20.76
2018-06-17T21:00:30.702Z,19.90
2018-06-17T21:05:32.856Z,19.20
2018-06-17T21:10:35.105Z,18.84
2018-06-17T21:15:37.293Z,18.73
2018-06-17T21:20:45.144Z,18.61
2018-06-17T21:25:53.035Z,18.44
2018-06-17T21:30:55.243Z,18.30
2018-06-17T21:35:57.428Z,18.39
2018-06-17T21:40:59.641Z,18.32
2018-06-17T21:46:01.836Z,18.29
2018-06-17T21:51:04.133Z,18.17
2018-06-17T21:56:06.331Z,18.12
2018-06-17T22:01:08.487Z,18.14
2018-06-17T22:06:10.715Z,18.08
2018-06-17T22:11:18.666Z,17.99
2018-06-17T22:16:26.581Z,17.80
2018-06-17T22:21:28.815Z,17.66
2018-06-17T22:26:31.145Z,17.56
2018-06-17T22:31:33.333Z,17.51
2018-06-17T22:36:35.492Z,17.53
2018-06-17T22:41:38.356Z,17.50
2018-06-17T22:46:40.558Z,17.37
2018-06-17T22:51:42.706Z,17.33
2018-06-17T22:56:51.598Z,17.16
2018-06-17T23:01:59.583Z,17.22
2018-06-17T23:07:07.489Z,17.14
2018-06-17T23:12:09.688Z,17.05
2018-06-17T23:17:11.873Z,17.23
2018-06-17T23:22:14.087Z,17.45
2018-06-17T23:27:16.262Z,17.46
2018-06-17T23:32:18.596Z,17.44
2018-06-17T23:37:20.740Z,17.41
2018-06-17T23:42:22.952Z,17.42
2018-06-17T23:47:30.658Z,17.47
2018-06-17T23:52:39.017Z,17.60
2018-06-17T23:57:41.158Z,17.46
